createdAt,value
2017-03-22T00:00:49.741Z,0
2017-03-22T00:01:59.795Z,0
2017-03-22T00:03:10.166Z,0
2017-03-22T00:04:20.204Z,0
2017-03-22T00:05:30.524Z,0
2017-03-22T00:06:40.952Z,0
2017-03-22T00:07:51.304Z,0
2017-03-22T00:09:01.020Z,0
2017-03-22T00:10:11.377Z,0
2017-03-22T00:11:21.759Z,0
2017-03-22T00:12:31.496Z,0
2017-03-22T00:13:41.842Z,0
2017-03-22T00:14:52.199Z,0
2017-03-22T00:16:02.266Z,0
2017-03-22T00:17:12.613Z,0
2017-03-22T00:18:22.955Z,0
2017-03-22T00:19:32.673Z,0
2017-03-22T00:20:42.721Z,0
2017-03-22T00:21:53.067Z,0
2017-03-22T00:23:03.404Z,0
2017-03-22T00:24:13.448Z,0
2017-03-22T00:25:23.170Z,0
2017-03-22T00:26:33.515Z,0
2017-03-22T00:27:43.874Z,0
2017-03-22T00:28:54.212Z,0
2017-03-22T00:30:04.250Z,0
2017-03-22T00:31:13.985Z,0
2017-03-22T00:32:24.333Z,0
2017-03-22T00:33:34.690Z,0
2017-03-22T00:34:45.027Z,0
2017-03-22T00:35:55.382Z,0
2017-03-22T00:37:05.731Z,0
2017-03-22T00:38:15.458Z,0
2017-03-22T00:39:25.206Z,0
2017-03-22T00:40:35.554Z,0
2017-03-22T00:41:45.913Z,0
2017-03-22T00:42:56.260Z,0
2017-03-22T00:44:06.286Z,0
2017-03-22T00:45:16.629Z,0
2017-03-22T00:46:26.985Z,0
2017-03-22T00:47:37.316Z,0
2017-03-22T00:48:47.357Z,0
2017-03-22T00:49:57.713Z,0
2017-03-22T00:51:08.074Z,0
2017-03-22T00:52:18.419Z,0
2017-03-22T00:53:28.769Z,0
2017-03-22T00:54:38.807Z,0
2017-03-22T00:55:48.521Z,0
2017-03-22T00:56:58.233Z,0
2017-03-22T00:58:08.574Z,0
2017-03-22T00:59:18.933Z,0
2017-03-22T01:00:29.293Z,0
2017-03-22T01:01:39.636Z,0
2017-03-22T01:02:49.982Z,0
2017-03-22T01:04:00.319Z,0
2017-03-22T01:05:10.666Z,0
2017-03-22T01:06:20.698Z,0
2017-03-22T01:07:31.051Z,0
2017-03-22T01:08:41.110Z,0
2017-03-22T01:09:51.454Z,0
2017-03-22T01:11:01.481Z,0
2017-03-22T01:12:11.826Z,0
2017-03-22T01:13:22.195Z,0
2017-03-22T01:14:31.924Z,0
2017-03-22T01:15:42.272Z,0
2017-03-22T01:16:52.309Z,0
2017-03-22T01:18:02.695Z,0
2017-03-22T01:19:12.398Z,0
2017-03-22T01:20:22.749Z,0
2017-03-22T01:21:33.092Z,0
2017-03-22T01:22:43.439Z,0
2017-03-22T01:23:53.771Z,0
2017-03-22T01:25:04.135Z,0
2017-03-22T01:26:14.475Z,0
2017-03-22T01:27:24.507Z,0
2017-03-22T01:28:34.569Z,0
2017-03-22T01:29:44.611Z,0
2017-03-22T01:30:54.951Z,0
2017-03-22T01:32:05.297Z,0
2017-03-22T01:33:15.355Z,0
2017-03-22T01:34:25.707Z,0
2017-03-22T01:35:36.046Z,0
2017-03-22T01:36:46.384Z,0
2017-03-22T01:37:56.730Z,0
2017-03-22T01:39:07.104Z,0
2017-03-22T01:40:17.144Z,0
2017-03-22T01:41:27.160Z,0
2017-03-22T01:42:37.172Z,0
2017-03-22T01:43:47.213Z,0
2017-03-22T01:44:57.243Z,0
2017-03-22T01:46:07.580Z,0
2017-03-22T01:47:18.006Z,0
2017-03-22T01:48:27.726Z,0
2017-03-22T01:49:38.081Z,0
2017-03-22T01:50:48.120Z,0
2017-03-22T01:51:57.844Z,0
2017-03-22T01:53:07.881Z,0
2017-03-22T01:54:18.238Z,0
2017-03-22T01:55:28.282Z,0
2017-03-22T01:56:37.991Z,0
2017-03-22T01:57:48.334Z,0
2017-03-22T01:58:58.386Z,0
2017-03-22T02:00:08.767Z,0
2017-03-22T02:01:19.103Z,0
2017-03-22T02:02:29.142Z,0
2017-03-22T02:03:39.478Z,0
2017-03-22T02:04:49.509Z,0
2017-03-22T02:05:59.536Z,0
2017-03-22T02:07:09.892Z,0
2017-03-22T02:08:20.283Z,0
2017-03-22T02:09:30.633Z,0
2017-03-22T02:10:40.966Z,0
2017-03-22T02:11:51.310Z,0
2017-03-22T02:13:01.669Z,0
2017-03-22T02:14:11.704Z,0
2017-03-22T02:15:22.047Z,0
2017-03-22T02:16:32.376Z,0
2017-03-22T02:17:42.726Z,0
2017-03-22T02:18:52.758Z,0
2017-03-22T02:20:03.115Z,0
2017-03-22T02:21:13.450Z,0
2017-03-22T02:22:23.806Z,0
2017-03-22T02:23:34.142Z,0
2017-03-22T02:24:44.493Z,0
2017-03-22T02:25:54.832Z,0
2017-03-22T02:27:04.855Z,0
2017-03-22T02:28:15.204Z,0
2017-03-22T02:29:25.558Z,0
2017-03-22T02:30:35.278Z,0
2017-03-22T02:31:45.303Z,0
2017-03-22T02:32:55.641Z,0
2017-03-22T02:34:05.997Z,0
2017-03-22T02:35:16.032Z,0
2017-03-22T02:36:26.376Z,0
2017-03-22T02:37:36.753Z,0
2017-03-22T02:38:47.109Z,0
2017-03-22T02:39:57.145Z,0
2017-03-22T02:41:07.176Z,0
2017-03-22T02:42:17.500Z,0
2017-03-22T02:43:27.546Z,0
2017-03-22T02:44:37.564Z,0
2017-03-22T02:45:47.908Z,0
2017-03-22T02:46:57.934Z,0
2017-03-22T02:48:08.277Z,0
2017-03-22T02:49:18.614Z,0
2017-03-22T02:50:28.971Z,0
2017-03-22T02:51:39.311Z,0
2017-03-22T02:52:49.664Z,0
2017-03-22T02:54:00.014Z,0
2017-03-22T02:55:10.353Z,0
2017-03-22T02:56:20.060Z,0
2017-03-22T02:57:30.386Z,0
2017-03-22T02:58:40.729Z,0
2017-03-22T02:59:51.076Z,0
2017-03-22T03:01:01.413Z,0
2017-03-22T03:32:19.033Z,0
2017-03-22T03:33:29.369Z,0
2017-03-22T03:34:39.707Z,0
2017-03-22T03:35:50.042Z,0
2017-03-22T03:37:00.368Z,0
2017-03-22T03:38:10.397Z,0
2017-03-22T03:39:20.413Z,0
2017-03-22T03:40:30.758Z,0
2017-03-22T03:41:41.089Z,0
2017-03-22T03:42:51.107Z,0
2017-03-22T03:44:01.144Z,0
2017-03-22T03:45:11.517Z,0
2017-03-22T03:46:21.841Z,0
2017-03-22T03:47:32.226Z,0
2017-03-22T03:48:42.617Z,0
2017-03-22T03:49:52.677Z,0
2017-03-22T03:51:03.016Z,0
2017-03-22T03:52:13.072Z,0
2017-03-22T03:53:23.418Z,0
2017-03-22T03:54:33.770Z,0
2017-03-22T03:55:44.129Z,0
2017-03-22T03:56:54.481Z,0
2017-03-22T03:58:04.527Z,0
2017-03-22T03:59:14.566Z,0
2017-03-22T04:00:24.605Z,0
2017-03-22T04:01:34.953Z,0
2017-03-22T04:02:45.312Z,0
2017-03-22T04:03:55.336Z,0
2017-03-22T04:05:05.699Z,0
2017-03-22T04:06:16.027Z,0
2017-03-22T04:07:26.423Z,0
2017-03-22T04:08:36.782Z,0
2017-03-22T04:09:47.130Z,0
2017-03-22T04:10:57.456Z,0
2017-03-22T04:12:07.489Z,0
2017-03-22T04:13:17.202Z,0
2017-03-22T04:14:27.257Z,0
2017-03-22T04:15:37.604Z,0
2017-03-22T04:16:47.939Z,0
2017-03-22T04:17:58.287Z,0
2017-03-22T04:19:08.317Z,0
2017-03-22T04:20:18.648Z,0
2017-03-22T04:21:28.983Z,0
2017-03-22T04:22:39.026Z,0
2017-03-22T04:23:49.366Z,0
2017-03-22T04:24:59.759Z,0
2017-03-22T04:26:09.804Z,0
2017-03-22T04:27:19.840Z,0
2017-03-22T04:28:30.181Z,0
2017-03-22T04:29:40.530Z,0
2017-03-22T04:30:50.870Z,0
2017-03-22T04:32:01.212Z,0
2017-03-22T04:33:11.561Z,0
2017-03-22T04:34:21.904Z,0
2017-03-22T04:35:32.234Z,0
2017-03-22T04:36:42.569Z,0
2017-03-22T04:37:52.913Z,0
2017-03-22T04:39:03.252Z,0
2017-03-22T04:40:13.593Z,0
2017-03-22T04:41:23.941Z,0
2017-03-22T04:42:34.266Z,0
2017-03-22T04:43:44.597Z,0
2017-03-22T04:44:54.923Z,0
2017-03-22T04:46:05.273Z,0
2017-03-22T04:47:15.627Z,0
2017-03-22T04:48:25.970Z,0
2017-03-22T04:49:36.311Z,0
2017-03-22T04:50:46.349Z,0
2017-03-22T04:51:56.685Z,0
2017-03-22T04:53:07.036Z,0
2017-03-22T04:54:17.096Z,0
2017-03-22T04:55:27.424Z,0
2017-03-22T04:56:37.755Z,0
2017-03-22T04:57:48.092Z,0
2017-03-22T04:58:58.445Z,0
2017-03-22T05:00:08.797Z,0
2017-03-22T05:01:18.820Z,0
2017-03-22T05:02:29.144Z,0
2017-03-22T05:03:39.189Z,0
2017-03-22T05:04:49.534Z,0
2017-03-22T05:05:59.869Z,0
2017-03-22T05:07:10.211Z,0
2017-03-22T05:08:20.556Z,0
2017-03-22T05:09:30.269Z,0
2017-03-22T05:10:40.607Z,0
2017-03-22T05:11:50.972Z,0
2017-03-22T05:13:01.318Z,0
2017-03-22T05:14:11.045Z,0
2017-03-22T05:15:21.088Z,0
2017-03-22T05:16:31.429Z,0
2017-03-22T05:17:41.783Z,5
2017-03-22T05:18:52.123Z,5
2017-03-22T05:20:02.156Z,5
2017-03-22T05:21:12.186Z,5
2017-03-22T05:22:22.519Z,5
2017-03-22T05:23:32.571Z,5
2017-03-22T05:24:42.920Z,5
2017-03-22T05:25:53.266Z,5
2017-03-22T05:27:03.601Z,5
2017-03-22T05:28:13.967Z,5
2017-03-22T05:29:23.995Z,5
2017-03-22T05:30:34.039Z,5
2017-03-22T05:31:43.742Z,5
2017-03-22T05:32:54.085Z,5
2017-03-22T05:34:04.469Z,5
2017-03-22T05:35:14.496Z,10
2017-03-22T05:36:24.522Z,10
2017-03-22T05:37:34.853Z,10
2017-03-22T05:38:45.197Z,10
2017-03-22T05:39:55.550Z,10
2017-03-22T05:41:05.887Z,10
2017-03-22T05:42:15.917Z,10
2017-03-22T05:43:26.268Z,10
2017-03-22T05:44:36.615Z,10
2017-03-22T05:45:46.947Z,10
2017-03-22T05:46:57.280Z,10
2017-03-22T05:48:07.625Z,10
2017-03-22T05:49:17.978Z,10
2017-03-22T05:50:28.340Z,10
2017-03-22T05:51:38.060Z,10
2017-03-22T05:52:48.404Z,10
2017-03-22T05:53:58.444Z,10
2017-03-22T05:55:08.798Z,15
2017-03-22T05:56:19.138Z,15
2017-03-22T05:57:29.464Z,15
2017-03-22T05:58:39.821Z,15
2017-03-22T05:59:49.847Z,15
2017-03-22T06:01:00.198Z,15
2017-03-22T06:02:10.543Z,20
2017-03-22T06:03:20.902Z,20
2017-03-22T06:04:31.251Z,20
2017-03-22T06:05:41.283Z,20
2017-03-22T06:06:51.613Z,20
2017-03-22T06:08:01.973Z,20
2017-03-22T06:09:12.328Z,20
2017-03-22T06:10:22.669Z,20
2017-03-22T06:11:32.984Z,20
2017-03-22T06:12:43.324Z,20
2017-03-22T06:13:53.688Z,20
2017-03-22T06:15:03.723Z,20
2017-03-22T06:16:13.422Z,20
2017-03-22T06:17:23.449Z,20
2017-03-22T06:18:33.790Z,20
2017-03-22T06:19:44.126Z,20
2017-03-22T06:20:54.449Z,25
2017-03-22T06:22:04.802Z,25
2017-03-22T06:23:14.842Z,30
2017-03-22T06:24:24.871Z,30
2017-03-22T06:25:35.211Z,35
2017-03-22T06:26:45.559Z,35
2017-03-22T06:27:55.897Z,35
2017-03-22T06:29:06.240Z,35
2017-03-22T06:30:16.289Z,35
2017-03-22T06:31:26.629Z,35
2017-03-22T06:32:36.965Z,40
2017-03-22T06:33:47.320Z,40
2017-03-22T06:34:57.348Z,40
2017-03-22T06:36:07.377Z,45
2017-03-22T06:37:17.717Z,45
2017-03-22T06:38:27.748Z,50
2017-03-22T06:39:37.761Z,50
2017-03-22T06:40:47.787Z,50
2017-03-22T06:41:57.812Z,45
2017-03-22T06:43:08.160Z,45
2017-03-22T06:44:18.212Z,40
2017-03-22T06:45:28.558Z,40
2017-03-22T06:46:38.586Z,40
2017-03-22T06:47:48.926Z,40
2017-03-22T06:48:58.959Z,40
2017-03-22T06:50:09.310Z,40
2017-03-22T06:51:19.648Z,35
2017-03-22T06:52:29.995Z,35
2017-03-22T06:53:40.030Z,40
2017-03-22T06:54:50.369Z,40
2017-03-22T06:56:00.401Z,40
2017-03-22T06:57:10.770Z,40
2017-03-22T06:58:21.140Z,45
2017-03-22T06:59:31.499Z,45
2017-03-22T07:00:41.846Z,45
2017-03-22T07:01:51.878Z,45
2017-03-22T07:03:01.963Z,45
2017-03-22T07:04:12.317Z,45
2017-03-22T07:05:22.649Z,45
2017-03-22T07:06:32.682Z,50
2017-03-22T07:07:43.016Z,55
2017-03-22T07:08:53.357Z,60
2017-03-22T07:10:03.717Z,60
2017-03-22T07:11:13.741Z,65
2017-03-22T07:12:24.078Z,70
2017-03-22T07:13:34.105Z,70
2017-03-22T07:14:44.137Z,75
2017-03-22T07:15:54.476Z,80
2017-03-22T07:17:04.815Z,85
2017-03-22T07:18:14.851Z,85
2017-03-22T07:19:24.888Z,85
2017-03-22T07:20:35.229Z,85
2017-03-22T07:21:44.934Z,85
2017-03-22T07:22:55.288Z,85
2017-03-22T07:24:05.621Z,90
2017-03-22T07:25:15.971Z,100
2017-03-22T07:26:26.307Z,95
2017-03-22T07:27:36.640Z,95
2017-03-22T07:28:46.663Z,100
2017-03-22T07:29:57.039Z,110
2017-03-22T07:31:07.430Z,110
2017-03-22T07:32:17.787Z,95
2017-03-22T07:33:27.844Z,90
2017-03-22T07:34:38.198Z,85
2017-03-22T07:35:48.561Z,85
2017-03-22T07:36:58.606Z,85
2017-03-22T07:38:08.674Z,85
2017-03-22T07:39:19.086Z,85
2017-03-22T07:40:29.444Z,85
2017-03-22T07:41:39.780Z,85
2017-03-22T07:42:50.163Z,80
2017-03-22T07:44:00.530Z,75
2017-03-22T07:45:10.583Z,70
2017-03-22T07:46:20.927Z,70
2017-03-22T07:47:31.274Z,70
2017-03-22T07:48:41.332Z,70
2017-03-22T07:49:51.683Z,70
2017-03-22T07:51:02.015Z,65
2017-03-22T07:52:12.360Z,65
2017-03-22T07:53:22.394Z,65
2017-03-22T07:54:32.426Z,65
2017-03-22T07:55:42.465Z,70
2017-03-22T07:56:52.492Z,75
2017-03-22T07:58:02.834Z,70
2017-03-22T07:59:13.193Z,65
2017-03-22T08:00:23.262Z,70
2017-03-22T08:01:33.635Z,75
2017-03-22T08:02:43.986Z,75
2017-03-22T08:03:54.320Z,70
2017-03-22T08:05:04.340Z,60
2017-03-22T08:06:14.379Z,60
2017-03-22T08:07:24.718Z,55
2017-03-22T08:08:35.084Z,55
2017-03-22T08:09:45.431Z,50
2017-03-22T08:10:55.771Z,50
2017-03-22T08:12:06.141Z,50
2017-03-22T08:13:16.484Z,50
2017-03-22T08:14:26.842Z,50
2017-03-22T08:15:36.882Z,50
2017-03-22T08:16:47.238Z,50
2017-03-22T08:17:57.591Z,50
2017-03-22T08:19:07.642Z,50
2017-03-22T08:20:17.377Z,50
2017-03-22T08:21:27.720Z,50
2017-03-22T08:22:37.771Z,55
2017-03-22T08:23:48.137Z,55
2017-03-22T08:24:58.191Z,55
2017-03-22T08:26:08.549Z,60
2017-03-22T08:27:18.592Z,55
2017-03-22T08:28:28.940Z,55
2017-03-22T08:29:39.276Z,55
2017-03-22T08:30:49.316Z,50
2017-03-22T08:31:59.660Z,50
2017-03-22T08:33:09.687Z,45
2017-03-22T08:34:19.714Z,45
2017-03-22T08:35:29.420Z,50
2017-03-22T08:36:39.759Z,50
2017-03-22T08:37:50.115Z,50
2017-03-22T08:39:00.157Z,50
2017-03-22T08:40:10.182Z,50
2017-03-22T08:41:20.539Z,50
2017-03-22T08:42:30.909Z,55
2017-03-22T08:43:41.272Z,55
2017-03-22T08:44:51.005Z,60
2017-03-22T08:46:01.036Z,60
2017-03-22T08:47:11.388Z,70
2017-03-22T08:48:20.797Z,70
2017-03-22T08:49:30.835Z,70
2017-03-22T08:50:41.168Z,65
2017-03-22T08:51:51.197Z,65
2017-03-22T08:53:01.549Z,70
2017-03-22T08:54:11.903Z,75
2017-03-22T08:55:22.251Z,70
2017-03-22T08:56:31.977Z,65
2017-03-22T08:57:42.324Z,65
2017-03-22T08:58:52.669Z,65
2017-03-22T09:00:03.014Z,65
2017-03-22T09:01:13.375Z,65
2017-03-22T09:02:23.745Z,65
2017-03-22T09:03:34.107Z,65
2017-03-22T09:04:44.475Z,55
2017-03-22T09:05:54.813Z,55
2017-03-22T09:07:05.172Z,50
2017-03-22T09:08:14.878Z,50
2017-03-22T09:09:25.230Z,45
2017-03-22T09:10:35.574Z,50
2017-03-22T09:11:45.916Z,50
2017-03-22T09:12:56.255Z,45
2017-03-22T09:14:06.603Z,40
2017-03-22T09:15:16.925Z,40
2017-03-22T09:16:27.280Z,40
2017-03-22T09:17:37.653Z,45
2017-03-22T09:18:47.395Z,45
2017-03-22T09:19:57.745Z,45
2017-03-22T09:21:08.073Z,50
2017-03-22T09:22:18.433Z,50
2017-03-22T09:23:28.792Z,45
2017-03-22T09:24:39.155Z,45
2017-03-22T09:25:49.520Z,50
2017-03-22T09:26:59.866Z,50
2017-03-22T09:28:10.253Z,50
2017-03-22T09:29:20.606Z,50
2017-03-22T09:30:30.972Z,55
2017-03-22T09:31:40.694Z,55
2017-03-22T09:32:50.729Z,55
2017-03-22T09:34:00.756Z,60
2017-03-22T09:35:10.823Z,65
2017-03-22T09:36:21.169Z,75
2017-03-22T09:37:30.913Z,80
2017-03-22T09:38:41.263Z,80
2017-03-22T09:39:51.294Z,80
2017-03-22T09:41:01.331Z,85
2017-03-22T09:42:11.659Z,85
2017-03-22T09:43:21.694Z,80
2017-03-22T09:44:31.722Z,75
2017-03-22T09:45:42.098Z,70
2017-03-22T09:46:52.463Z,75
2017-03-22T09:48:02.817Z,75
2017-03-22T09:49:12.859Z,75
2017-03-22T09:50:23.196Z,75
2017-03-22T09:51:33.539Z,80
2017-03-22T09:52:44.133Z,80
2017-03-22T09:53:54.156Z,80
2017-03-22T09:55:04.497Z,85
2017-03-22T09:56:14.555Z,85
2017-03-22T09:57:24.893Z,85
2017-03-22T09:58:34.918Z,85
2017-03-22T09:59:45.291Z,85
2017-03-22T10:00:55.621Z,85
2017-03-22T10:02:05.959Z,80
2017-03-22T10:03:16.313Z,75
2017-03-22T10:04:26.345Z,70
2017-03-22T10:05:36.382Z,70
2017-03-22T10:06:46.423Z,65
2017-03-22T10:07:56.771Z,60
2017-03-22T10:09:06.802Z,55
2017-03-22T10:10:16.833Z,55
2017-03-22T10:11:27.207Z,55
2017-03-22T10:12:37.553Z,60
2017-03-22T10:13:47.559Z,65
2017-03-22T10:14:57.593Z,80
2017-03-22T10:16:07.635Z,95
2017-03-22T10:17:17.961Z,115
2017-03-22T10:18:27.995Z,130
2017-03-22T10:19:38.359Z,135
2017-03-22T10:20:48.698Z,130
2017-03-22T10:21:59.029Z,120
2017-03-22T10:23:09.089Z,115
2017-03-22T10:24:19.538Z,115
2017-03-22T10:25:29.896Z,115
2017-03-22T10:26:40.284Z,120
2017-03-22T10:27:50.618Z,120
2017-03-22T10:29:00.969Z,130
2017-03-22T10:30:11.333Z,130
2017-03-22T10:31:21.672Z,120
2017-03-22T10:32:31.699Z,110
2017-03-22T10:33:41.736Z,105
2017-03-22T10:34:52.056Z,95
2017-03-22T10:36:02.382Z,95
2017-03-22T10:37:12.410Z,90
2017-03-22T10:38:22.431Z,90
2017-03-22T10:39:32.138Z,90
2017-03-22T10:40:42.179Z,90
2017-03-22T10:41:52.210Z,90
2017-03-22T10:43:02.552Z,85
2017-03-22T10:44:12.881Z,80
2017-03-22T10:45:22.909Z,75
2017-03-22T10:46:33.259Z,75
2017-03-22T10:47:43.278Z,80
2017-03-22T10:48:53.612Z,80
2017-03-22T10:50:03.937Z,80
2017-03-22T10:51:13.968Z,80
2017-03-22T10:52:24.298Z,75
2017-03-22T10:53:34.637Z,75
2017-03-22T10:54:44.651Z,70
2017-03-22T10:55:55.008Z,65
2017-03-22T10:57:05.348Z,60
2017-03-22T10:58:15.389Z,60
2017-03-22T10:59:25.714Z,65
2017-03-22T11:00:36.047Z,65
2017-03-22T11:01:46.076Z,60
2017-03-22T11:02:56.456Z,55
2017-03-22T11:04:06.803Z,55
2017-03-22T11:05:16.859Z,60
2017-03-22T11:06:27.212Z,60
2017-03-22T11:07:37.544Z,60
2017-03-22T11:08:47.890Z,60
2017-03-22T11:09:57.931Z,55
2017-03-22T11:11:08.262Z,55
2017-03-22T11:12:18.601Z,55
2017-03-22T11:13:28.625Z,60
2017-03-22T11:14:38.958Z,60
2017-03-22T11:15:49.312Z,60
2017-03-22T11:16:59.916Z,65
2017-03-22T11:18:09.930Z,70
2017-03-22T11:19:19.960Z,75
2017-03-22T11:20:29.992Z,75
2017-03-22T11:21:40.338Z,80
2017-03-22T11:22:50.700Z,80
2017-03-22T11:24:00.429Z,85
2017-03-22T11:25:10.474Z,85
2017-03-22T11:26:20.819Z,85
2017-03-22T11:27:31.166Z,85
2017-03-22T11:28:41.489Z,90
2017-03-22T11:29:51.837Z,95
2017-03-22T11:31:01.547Z,95
2017-03-22T11:32:11.239Z,95
2017-03-22T11:33:21.286Z,90
2017-03-22T11:34:31.646Z,95
2017-03-22T11:35:41.681Z,115
2017-03-22T11:36:51.724Z,120
2017-03-22T11:38:01.423Z,125
2017-03-22T11:39:11.436Z,130
2017-03-22T11:40:21.470Z,145
2017-03-22T11:41:31.813Z,155
2017-03-22T11:42:41.846Z,160
2017-03-22T11:43:52.195Z,165
2017-03-22T11:45:02.230Z,145
2017-03-22T11:46:12.587Z,135
2017-03-22T11:47:22.616Z,130
2017-03-22T11:48:32.654Z,120
2017-03-22T11:49:42.980Z,110
2017-03-22T11:50:52.700Z,125
2017-03-22T11:52:03.058Z,140
2017-03-22T11:53:13.404Z,175
2017-03-22T11:54:23.757Z,205
2017-03-22T11:55:34.103Z,175
2017-03-22T11:56:44.448Z,135
2017-03-22T11:57:54.811Z,115
2017-03-22T11:59:05.152Z,110
2017-03-22T12:00:15.493Z,105
2017-03-22T12:01:25.858Z,105
2017-03-22T12:02:36.191Z,100
2017-03-22T12:03:46.212Z,100
2017-03-22T12:04:56.577Z,105
2017-03-22T12:06:06.909Z,105
2017-03-22T12:07:17.229Z,100
2017-03-22T12:08:27.251Z,95
2017-03-22T12:09:37.378Z,95
2017-03-22T12:10:47.718Z,95
2017-03-22T12:11:58.068Z,95
2017-03-22T12:13:08.392Z,95
2017-03-22T12:14:18.726Z,100
2017-03-22T12:15:28.743Z,100
2017-03-22T12:16:38.770Z,100
2017-03-22T12:17:48.831Z,95
2017-03-22T12:18:59.260Z,100
2017-03-22T12:20:09.630Z,100
2017-03-22T12:21:19.961Z,95
2017-03-22T12:22:29.989Z,90
2017-03-22T12:23:40.006Z,90
2017-03-22T12:24:50.353Z,85
2017-03-22T12:26:00.115Z,85
2017-03-22T12:27:10.449Z,90
2017-03-22T12:28:20.779Z,100
2017-03-22T12:29:31.139Z,115
2017-03-22T12:30:41.466Z,125
2017-03-22T12:31:51.509Z,120
2017-03-22T12:33:01.848Z,135
2017-03-22T12:34:12.174Z,135
2017-03-22T12:35:22.530Z,150
2017-03-22T12:36:32.867Z,175
2017-03-22T12:37:42.907Z,130
2017-03-22T12:38:53.252Z,125
2017-03-22T12:40:03.671Z,140
2017-03-22T12:41:13.701Z,150
2017-03-22T12:42:24.046Z,165
2017-03-22T12:43:34.383Z,185
2017-03-22T12:44:44.741Z,225
2017-03-22T12:45:55.087Z,255
2017-03-22T12:47:05.114Z,245
2017-03-22T12:48:15.461Z,225
2017-03-22T12:49:25.789Z,185
2017-03-22T12:50:35.800Z,165
2017-03-22T12:51:46.149Z,150
2017-03-22T12:52:56.497Z,130
2017-03-22T12:54:06.840Z,130
2017-03-22T12:55:17.175Z,115
2017-03-22T12:56:27.527Z,100
2017-03-22T12:57:37.546Z,90
2017-03-22T12:58:46.965Z,85
2017-03-22T12:59:57.346Z,80
2017-03-22T13:01:07.696Z,80
2017-03-22T13:02:18.060Z,80
2017-03-22T13:03:28.412Z,80
2017-03-22T13:04:38.760Z,80
2017-03-22T13:05:49.118Z,75
2017-03-22T13:06:58.841Z,80
2017-03-22T13:08:08.875Z,75
2017-03-22T13:09:19.216Z,75
2017-03-22T13:10:29.268Z,70
2017-03-22T13:11:38.995Z,70
2017-03-22T13:12:49.387Z,75
2017-03-22T13:13:59.416Z,75
2017-03-22T13:15:09.775Z,80
2017-03-22T13:16:19.830Z,85
2017-03-22T13:17:29.847Z,80
2017-03-22T13:18:40.199Z,80
2017-03-22T13:19:50.532Z,80
2017-03-22T13:21:00.284Z,85
2017-03-22T13:22:10.643Z,90
2017-03-22T13:23:20.693Z,90
2017-03-22T13:24:30.738Z,95
2017-03-22T13:25:41.087Z,95
2017-03-22T13:26:50.803Z,95
2017-03-22T13:28:00.821Z,95
2017-03-22T13:29:11.166Z,95
2017-03-22T13:30:21.517Z,95
2017-03-22T13:31:31.867Z,95
2017-03-22T13:32:42.220Z,95
2017-03-22T13:33:52.572Z,100
2017-03-22T13:35:02.895Z,95
2017-03-22T13:36:13.310Z,95
2017-03-22T13:37:23.669Z,100
2017-03-22T13:38:33.695Z,105
2017-03-22T13:39:43.742Z,100
2017-03-22T13:40:54.081Z,100
2017-03-22T13:42:04.437Z,100
2017-03-22T13:43:14.452Z,100
2017-03-22T13:44:24.492Z,100
2017-03-22T13:45:34.836Z,100
2017-03-22T13:46:45.213Z,100
2017-03-22T13:47:55.587Z,105
2017-03-22T13:49:05.625Z,105
2017-03-22T13:50:15.642Z,110
2017-03-22T13:51:25.994Z,115
2017-03-22T13:52:36.339Z,120
2017-03-22T13:53:46.695Z,115
2017-03-22T13:54:57.030Z,110
2017-03-22T13:56:07.378Z,105
2017-03-22T13:57:17.406Z,100
2017-03-22T13:58:27.769Z,95
2017-03-22T13:59:38.132Z,90
2017-03-22T14:00:48.722Z,90
2017-03-22T14:01:59.109Z,90
2017-03-22T14:03:09.140Z,90
2017-03-22T14:04:18.861Z,90
2017-03-22T14:05:28.892Z,90
2017-03-22T14:06:38.923Z,90
2017-03-22T14:07:48.962Z,100
2017-03-22T14:08:58.988Z,120
2017-03-22T14:10:09.016Z,115
2017-03-22T14:11:19.047Z,110
2017-03-22T14:12:28.464Z,105
2017-03-22T14:13:38.819Z,105
2017-03-22T14:14:48.535Z,105
2017-03-22T14:15:58.879Z,100
2017-03-22T14:17:09.225Z,95
2017-03-22T14:18:19.257Z,90
2017-03-22T14:19:29.296Z,90
2017-03-22T14:20:39.647Z,85
2017-03-22T14:21:50.010Z,85
2017-03-22T14:23:00.064Z,80
2017-03-22T14:24:10.101Z,80
2017-03-22T14:25:20.143Z,85
2017-03-22T14:26:30.177Z,80
2017-03-22T14:27:39.891Z,80
2017-03-22T14:28:49.934Z,90
2017-03-22T14:29:59.980Z,90
2017-03-22T14:31:10.352Z,105
2017-03-22T14:32:20.709Z,105
2017-03-22T14:33:31.049Z,105
2017-03-22T14:34:41.401Z,105
2017-03-22T14:35:51.735Z,105
2017-03-22T14:37:01.751Z,105
2017-03-22T14:38:12.119Z,105
2017-03-22T14:39:21.842Z,110
2017-03-22T14:40:31.592Z,105
2017-03-22T14:41:41.930Z,110
2017-03-22T14:42:52.263Z,110
2017-03-22T14:44:02.650Z,115
2017-03-22T14:45:12.669Z,125
2017-03-22T14:46:23.017Z,125
2017-03-22T14:47:33.040Z,125
2017-03-22T14:48:43.074Z,125
2017-03-22T14:49:53.415Z,125
2017-03-22T14:51:03.818Z,120
2017-03-22T14:52:14.148Z,120
2017-03-22T14:53:24.493Z,120
2017-03-22T14:54:34.858Z,125
2017-03-22T14:55:45.209Z,120
2017-03-22T14:56:55.565Z,120
2017-03-22T14:58:05.914Z,115
2017-03-22T14:59:16.244Z,115
2017-03-22T15:00:26.599Z,110
2017-03-22T15:01:36.640Z,105
2017-03-22T15:02:47.056Z,105
2017-03-22T15:03:57.400Z,110
2017-03-22T15:05:07.438Z,105
2017-03-22T15:06:17.787Z,100
2017-03-22T15:07:28.188Z,100
2017-03-22T15:08:38.266Z,95
2017-03-22T15:09:48.620Z,95
2017-03-22T15:10:58.667Z,90
2017-03-22T15:12:09.031Z,90
2017-03-22T15:13:19.301Z,90
2017-03-22T15:14:29.645Z,90
2017-03-22T15:15:39.995Z,90
2017-03-22T15:16:50.374Z,90
2017-03-22T15:18:00.701Z,85
2017-03-22T15:19:11.056Z,90
2017-03-22T15:20:21.468Z,85
2017-03-22T15:21:31.527Z,80
2017-03-22T15:22:41.864Z,80
2017-03-22T15:23:52.223Z,75
2017-03-22T15:25:02.571Z,75
2017-03-22T15:26:12.909Z,75
2017-03-22T15:27:23.236Z,80
2017-03-22T15:28:33.260Z,80
2017-03-22T15:29:43.308Z,75
2017-03-22T15:30:53.651Z,70
2017-03-22T15:32:04.011Z,70
2017-03-22T15:33:14.390Z,70
2017-03-22T15:34:24.464Z,65
2017-03-22T15:35:34.821Z,65
2017-03-22T15:36:45.207Z,60
2017-03-22T15:37:55.230Z,60
2017-03-22T15:39:05.593Z,60
2017-03-22T15:40:15.936Z,55
2017-03-22T15:41:26.317Z,50
2017-03-22T15:42:36.665Z,50
2017-03-22T15:43:47.018Z,50
2017-03-22T15:44:57.374Z,45
2017-03-22T15:46:07.728Z,45
2017-03-22T15:47:18.053Z,45
2017-03-22T15:48:28.401Z,45
2017-03-22T15:49:38.756Z,45
2017-03-22T15:50:48.798Z,45
2017-03-22T15:51:59.143Z,45
2017-03-22T15:53:09.182Z,45
2017-03-22T15:54:18.925Z,45
2017-03-22T15:55:28.973Z,45
2017-03-22T15:56:39.327Z,45
2017-03-22T15:57:49.360Z,45
2017-03-22T15:58:59.744Z,45
2017-03-22T16:00:09.805Z,45
2017-03-22T16:01:19.865Z,45
2017-03-22T16:02:30.295Z,45
2017-03-22T16:03:40.642Z,45
2017-03-22T16:04:50.981Z,45
2017-03-22T16:06:01.334Z,45
2017-03-22T16:07:11.708Z,45
2017-03-22T16:08:22.080Z,45
2017-03-22T16:09:32.112Z,45
2017-03-22T16:10:42.445Z,45
2017-03-22T16:11:52.802Z,45
2017-03-22T16:13:02.850Z,45
2017-03-22T16:14:12.882Z,45
2017-03-22T16:15:23.251Z,45
2017-03-22T16:16:33.597Z,45
2017-03-22T16:17:43.968Z,40
2017-03-22T16:18:54.314Z,40
2017-03-22T16:20:04.670Z,40
2017-03-22T16:21:15.053Z,40
2017-03-22T16:22:25.400Z,40
2017-03-22T16:23:35.774Z,35
2017-03-22T16:24:46.167Z,35
2017-03-22T16:25:56.517Z,30
2017-03-22T16:27:06.578Z,30
2017-03-22T16:28:16.971Z,25
2017-03-22T16:29:27.340Z,25
2017-03-22T16:30:37.724Z,25
2017-03-22T16:31:48.071Z,25
2017-03-22T16:32:58.127Z,20
2017-03-22T16:34:08.156Z,20
2017-03-22T16:35:18.549Z,20
2017-03-22T16:36:28.609Z,20
2017-03-22T16:37:38.969Z,15
2017-03-22T16:38:49.037Z,15
2017-03-22T16:39:59.066Z,15
2017-03-22T16:41:09.107Z,15
2017-03-22T16:42:19.494Z,15
2017-03-22T16:43:29.850Z,15
2017-03-22T16:44:39.884Z,10
2017-03-22T16:45:50.284Z,10
2017-03-22T16:47:00.643Z,10
2017-03-22T16:48:11.005Z,10
2017-03-22T16:49:21.067Z,5
2017-03-22T16:50:31.115Z,5
2017-03-22T16:51:41.509Z,5
2017-03-22T16:52:51.863Z,5
2017-03-22T16:54:01.576Z,5
2017-03-22T16:55:11.928Z,5
2017-03-22T16:56:22.324Z,5
2017-03-22T16:57:32.660Z,5
2017-03-22T16:58:43.029Z,5
2017-03-22T16:59:53.380Z,5
2017-03-22T17:01:03.751Z,5
2017-03-22T17:02:13.782Z,0
2017-03-22T17:03:24.124Z,0
2017-03-22T17:04:34.486Z,0
2017-03-22T17:05:44.831Z,0
2017-03-22T17:06:54.870Z,0
2017-03-22T17:08:04.602Z,0
2017-03-22T17:09:14.969Z,0
2017-03-22T17:10:25.326Z,0
2017-03-22T17:11:35.759Z,0
2017-03-22T17:12:46.103Z,0
2017-03-22T17:13:56.438Z,0
2017-03-22T17:15:06.168Z,0
2017-03-22T17:16:16.531Z,0
2017-03-22T17:17:26.867Z,0